createdAt,value
2019-05-13T00:01:50.458Z,61.43
2019-05-13T00:04:21.582Z,62.01
2019-05-13T00:06:55.127Z,61.48
2019-05-13T00:09:26.248Z,62.53
2019-05-13T00:11:57.760Z,62.90
2019-05-13T00:14:29.053Z,61.36
2019-05-13T00:17:00.008Z,62.26
2019-05-13T00:19:31.003Z,62.97
2019-05-13T00:22:03.807Z,62.40
2019-05-13T00:24:35.264Z,62.45
2019-05-13T00:27:06.258Z,63.02
2019-05-13T00:29:37.089Z,63.06
2019-05-13T00:32:08.075Z,62.29
2019-05-13T00:34:39.186Z,61.70
2019-05-13T00:37:11.790Z,63.20
2019-05-13T00:39:44.237Z,62.62
2019-05-13T00:42:15.452Z,62.43
2019-05-13T00:44:46.734Z,61.69
2019-05-13T00:47:18.206Z,60.69
2019-05-13T00:49:49.189Z,61.36
2019-05-13T00:52:20.427Z,61.26
2019-05-13T00:54:53.019Z,61.26
2019-05-13T00:57:24.077Z,62.14
2019-05-13T00:59:55.060Z,62.60
2019-05-13T01:02:27.490Z,63.03
2019-05-13T01:04:58.857Z,63.07
2019-05-13T01:07:30.684Z,63.55
2019-05-13T01:10:04.030Z,64.11
2019-05-13T01:12:34.617Z,64.66
2019-05-13T01:15:08.120Z,62.37
2019-05-13T01:17:39.002Z,63.16
2019-05-13T01:20:10.081Z,63.15
2019-05-13T01:22:43.816Z,63.55
2019-05-13T01:25:14.491Z,63.45
2019-05-13T01:27:45.762Z,63.88
2019-05-13T01:30:16.762Z,63.83
2019-05-13T01:32:47.871Z,63.24
2019-05-13T01:35:18.907Z,62.72
2019-05-13T01:37:49.947Z,63.58
2019-05-13T01:40:20.917Z,63.70
2019-05-13T01:42:54.032Z,64.31
2019-05-13T01:45:24.697Z,63.30
2019-05-13T01:47:55.663Z,64.72
2019-05-13T01:50:26.979Z,64.01
2019-05-13T01:52:59.331Z,64.46
2019-05-13T01:55:30.891Z,64.51
2019-05-13T01:58:04.375Z,64.69
2019-05-13T02:00:35.714Z,63.79
2019-05-13T02:03:06.937Z,64.89
2019-05-13T02:05:38.138Z,64.89
2019-05-13T02:08:09.179Z,65.08
2019-05-13T02:10:59.159Z,64.75
2019-05-13T02:13:34.081Z,64.83
2019-05-13T02:16:04.622Z,64.49
2019-05-13T02:18:35.660Z,65.85
2019-05-13T02:21:06.608Z,65.73
2019-05-13T02:23:37.656Z,65.75
2019-05-13T02:26:08.758Z,66.23
2019-05-13T02:28:39.753Z,65.11
2019-05-13T02:31:13.683Z,65.70
2019-05-13T02:33:43.472Z,65.02
2019-05-13T02:36:14.630Z,64.87
2019-05-13T02:38:45.747Z,65.86
2019-05-13T02:41:16.848Z,66.88
2019-05-13T02:43:47.895Z,65.86
2019-05-13T02:46:18.895Z,65.49
2019-05-13T02:48:52.838Z,66.22
2019-05-13T02:51:23.259Z,66.07
2019-05-13T02:53:54.531Z,66.26
2019-05-13T02:56:25.567Z,66.09
2019-05-13T02:58:56.559Z,66.66
2019-05-13T03:01:27.717Z,67.47
2019-05-13T03:04:02.755Z,67.26
2019-05-13T03:06:33.215Z,66.28
2019-05-13T03:09:07.889Z,66.18
2019-05-13T03:11:41.559Z,67.16
2019-05-13T03:14:12.873Z,66.83
2019-05-13T03:16:56.580Z,66.25
2019-05-13T03:19:27.527Z,66.05
2019-05-13T03:21:58.470Z,66.25
2019-05-13T03:24:32.725Z,66.97
2019-05-13T03:27:02.738Z,67.22
2019-05-13T03:29:34.211Z,66.47
2019-05-13T03:32:07.626Z,66.01
2019-05-13T03:34:44.609Z,66.12
2019-05-13T03:37:15.319Z,66.16
2019-05-13T03:39:44.702Z,65.79
2019-05-13T03:42:15.639Z,65.63
2019-05-13T03:44:46.815Z,65.92
2019-05-13T03:47:17.896Z,66.41
2019-05-13T03:49:48.939Z,65.73
2019-05-13T03:52:22.514Z,67.14
2019-05-13T03:54:52.527Z,68.08
2019-05-13T03:59:55.523Z,67.59
2019-05-13T04:02:32.373Z,67.14
2019-05-13T04:05:03.966Z,67.42
2019-05-13T04:07:36.069Z,67.70
2019-05-13T04:10:13.118Z,67.25
2019-05-13T04:15:16.528Z,67.88
2019-05-13T04:17:47.491Z,67.80
2019-05-13T04:20:18.530Z,68.00
2019-05-13T04:22:52.679Z,68.13
2019-05-13T04:25:23.126Z,67.72
2019-05-13T04:27:54.716Z,68.01
2019-05-13T04:30:25.694Z,68.29
2019-05-13T04:32:56.720Z,67.97
2019-05-13T04:35:27.703Z,68.35
2019-05-13T04:37:58.688Z,68.01
2019-05-13T04:40:32.959Z,68.03
2019-05-13T04:43:03.113Z,68.21
2019-05-13T04:45:34.570Z,69.82
2019-05-13T04:48:06.341Z,69.11
2019-05-13T04:50:38.189Z,70.38
2019-05-13T04:53:09.528Z,70.06
2019-05-13T04:55:42.745Z,72.15
2019-05-13T04:58:13.689Z,73.22
2019-05-13T05:01:13.296Z,72.23
2019-05-13T05:03:53.180Z,71.41
2019-05-13T05:06:36.847Z,71.32
2019-05-13T05:13:16.758Z,69.75
2019-05-13T05:16:33.337Z,70.17
2019-05-13T05:19:47.366Z,69.28
2019-05-13T05:23:42.298Z,71.90
2019-05-13T05:27:21.343Z,71.05
2019-05-13T05:30:55.185Z,71.29
2019-05-13T05:34:28.204Z,70.63
2019-05-13T05:37:31.177Z,71.27
2019-05-13T05:40:02.141Z,71.68
2019-05-13T05:48:53.385Z,73.61
2019-05-13T05:50:48.683Z,72.32
2019-05-13T05:53:23.006Z,71.55
2019-05-13T06:00:54.260Z,72.53
2019-05-13T06:05:54.382Z,71.36
2019-05-13T06:08:35.567Z,70.12
2019-05-13T06:11:08.704Z,69.08
2019-05-13T06:21:55.720Z,65.99
2019-05-13T06:27:14.037Z,64.19
2019-05-13T06:32:31.413Z,61.74
2019-05-13T06:41:09.058Z,62.24
2019-05-13T06:50:06.508Z,59.35
2019-05-13T07:01:27.287Z,57.13
2019-05-13T08:17:48.260Z,46.78
2019-05-13T08:22:58.704Z,45.56
2019-05-13T08:25:43.676Z,45.28
2019-05-13T08:31:21.816Z,43.53
2019-05-13T08:36:51.387Z,42.54
2019-05-13T08:42:40.876Z,44.14
2019-05-13T08:46:08.473Z,42.23
2019-05-13T09:13:22.757Z,36.39
2019-05-13T09:18:45.646Z,35.90
2019-05-13T09:23:48.671Z,35.78
2019-05-13T09:29:02.198Z,34.54
2019-05-13T09:34:08.579Z,34.09
2019-05-13T09:39:17.870Z,33.63
2019-05-13T09:42:12.878Z,31.09
2019-05-13T09:50:04.447Z,31.28
2019-05-13T09:55:32.559Z,29.72
2019-05-13T10:00:33.025Z,33.94
2019-05-13T10:05:36.745Z,29.68
2019-05-13T10:15:42.943Z,31.45
2019-05-13T10:18:26.167Z,32.16
2019-05-13T10:21:01.292Z,32.58
2019-05-13T10:26:06.640Z,31.27
2019-05-13T10:31:07.053Z,31.86
2019-05-13T10:36:11.894Z,29.76
2019-05-13T10:41:12.132Z,30.13
2019-05-13T10:48:42.139Z,29.83
2019-05-13T10:51:14.310Z,28.22
2019-05-13T10:53:47.637Z,30.02
2019-05-13T10:56:20.316Z,28.58
2019-05-13T10:58:53.443Z,28.06
2019-05-13T11:03:55.306Z,29.24
2019-05-13T11:08:58.185Z,29.64
2019-05-13T11:14:08.277Z,28.47
2019-05-13T11:21:32.197Z,29.72
2019-05-13T11:26:36.112Z,26.26
2019-05-13T11:29:06.459Z,25.36
2019-05-13T11:34:11.998Z,25.41
2019-05-13T11:39:13.715Z,25.56
2019-05-13T11:44:16.935Z,25.91
2019-05-13T11:47:07.093Z,25.34
2019-05-13T11:49:38.419Z,25.11
2019-05-13T11:52:12.111Z,28.08
2019-05-13T11:57:12.758Z,28.53
2019-05-13T12:02:16.034Z,25.86
2019-05-13T12:07:16.652Z,26.55
2019-05-13T12:09:51.814Z,28.47
2019-05-13T12:15:22.509Z,26.20
2019-05-13T12:19:58.299Z,27.03
2019-05-13T12:22:31.287Z,25.80
2019-05-13T12:25:02.889Z,24.89
2019-05-13T12:30:06.791Z,25.81
2019-05-13T12:35:13.328Z,24.95
2019-05-13T12:40:12.477Z,24.95
2019-05-13T12:42:47.133Z,25.45
2019-05-13T12:45:16.413Z,23.78
2019-05-13T12:47:48.526Z,25.77
2019-05-13T12:50:23.957Z,25.92
2019-05-13T12:55:24.541Z,27.64
2019-05-13T13:00:36.583Z,24.83
2019-05-13T13:03:13.036Z,24.36
2019-05-13T13:08:19.246Z,23.35
2019-05-13T13:11:13.298Z,24.31
2019-05-13T13:14:17.035Z,24.22
2019-05-13T13:17:12.800Z,24.16
2019-05-13T13:25:13.281Z,23.97
2019-05-13T13:28:11.399Z,24.43
2019-05-13T13:30:44.190Z,23.47
2019-05-13T13:33:18.331Z,21.40
2019-05-13T13:36:00.241Z,23.83
2019-05-13T13:41:38.869Z,23.75
2019-05-13T13:44:12.573Z,25.29
2019-05-13T13:52:01.536Z,24.14
2019-05-13T14:02:36.967Z,23.19
2019-05-13T14:08:30.063Z,23.28
2019-05-13T14:11:11.420Z,24.00
2019-05-13T14:16:47.059Z,23.27
2019-05-13T14:19:23.190Z,21.98
2019-05-13T14:21:57.797Z,23.61
2019-05-13T14:24:42.796Z,22.37
2019-05-13T14:30:51.676Z,24.99
2019-05-13T14:35:57.813Z,24.04
2019-05-13T14:41:42.367Z,24.04
2019-05-13T14:44:12.706Z,23.86
2019-05-13T14:46:49.005Z,24.82
2019-05-13T14:52:22.359Z,24.80
2019-05-13T15:00:29.455Z,26.46
2019-05-13T15:08:36.656Z,25.63
2019-05-13T15:14:14.131Z,24.38
2019-05-13T15:20:07.159Z,24.60
2019-05-13T15:25:36.230Z,23.36
2019-05-13T15:28:51.879Z,25.24
2019-05-13T15:31:25.114Z,25.11
2019-05-13T15:34:15.186Z,24.91
2019-05-13T15:36:50.972Z,26.20
2019-05-13T15:39:25.440Z,25.32
2019-05-13T15:42:01.912Z,25.14
2019-05-13T15:47:23.370Z,26.01
2019-05-13T15:52:26.125Z,25.79
2019-05-13T15:57:47.071Z,25.40
2019-05-13T16:00:18.022Z,25.75
2019-05-13T16:05:18.267Z,25.74
2019-05-13T16:10:22.203Z,26.23
2019-05-13T16:15:22.537Z,27.31
2019-05-13T16:17:55.735Z,27.39
2019-05-13T16:20:28.948Z,26.72
2019-05-13T16:23:02.327Z,26.52
2019-05-13T16:25:33.747Z,26.94
2019-05-13T16:28:23.787Z,26.92
2019-05-13T16:33:24.859Z,26.36
2019-05-13T16:38:28.270Z,26.80
2019-05-13T16:43:31.931Z,26.27
2019-05-13T16:46:07.303Z,26.19
2019-05-13T16:48:36.368Z,27.58
2019-05-13T16:53:41.878Z,26.13
2019-05-13T16:56:25.640Z,26.56
2019-05-13T16:58:44.724Z,27.38
2019-05-13T17:01:16.634Z,27.00
2019-05-13T17:06:17.834Z,27.49
2019-05-13T17:11:21.017Z,27.22
2019-05-13T17:16:21.414Z,27.00
2019-05-13T17:18:53.275Z,27.12
2019-05-13T17:23:57.059Z,28.20
2019-05-13T17:26:29.423Z,28.08
2019-05-13T17:29:01.394Z,27.54
2019-05-13T17:34:02.523Z,28.31
2019-05-13T17:39:03.153Z,28.30
2019-05-13T17:44:03.390Z,28.72
2019-05-13T17:46:37.033Z,28.96
2019-05-13T17:49:09.024Z,29.41
2019-05-13T17:51:43.608Z,29.92
2019-05-13T17:57:13.802Z,29.83
2019-05-13T18:02:22.667Z,30.52
2019-05-13T18:07:32.131Z,31.29
2019-05-13T18:12:38.225Z,32.17
2019-05-13T18:17:38.295Z,32.80
2019-05-13T18:21:05.742Z,32.94
2019-05-13T18:26:16.327Z,33.57
2019-05-13T18:31:18.385Z,34.13
2019-05-13T18:36:22.907Z,34.43
2019-05-13T18:41:23.650Z,34.98
2019-05-13T18:46:28.662Z,34.46
2019-05-13T18:51:47.815Z,35.46
2019-05-13T18:57:12.176Z,35.84
2019-05-13T19:02:16.381Z,36.29
2019-05-13T19:04:46.303Z,36.81
2019-05-13T19:07:18.553Z,37.10
2019-05-13T19:09:52.296Z,37.13
2019-05-13T19:12:31.362Z,38.17
2019-05-13T19:15:11.593Z,38.29
2019-05-13T19:17:51.976Z,38.42
2019-05-13T19:20:35.285Z,39.71
2019-05-13T19:23:16.882Z,38.18
2019-05-13T19:25:57.179Z,38.87
2019-05-13T19:28:35.099Z,39.93
2019-05-13T19:31:08.457Z,38.71
2019-05-13T19:33:41.482Z,39.37
2019-05-13T19:36:44.064Z,40.10
2019-05-13T19:39:31.484Z,40.19
2019-05-13T19:42:06.238Z,39.78
2019-05-13T19:44:43.208Z,39.76
2019-05-13T19:47:14.273Z,40.34
2019-05-13T19:49:47.392Z,40.42
2019-05-13T19:52:22.373Z,41.40
2019-05-13T19:54:53.349Z,41.75
2019-05-13T19:57:24.887Z,41.23
2019-05-13T19:59:56.399Z,41.19
2019-05-13T20:02:31.653Z,41.58
2019-05-13T20:05:02.780Z,41.84
2019-05-13T20:07:32.750Z,40.92
2019-05-13T20:12:32.780Z,41.40
2019-05-13T20:15:06.800Z,42.32
2019-05-13T20:22:38.455Z,42.31
2019-05-13T20:27:42.171Z,42.91
2019-05-13T20:32:43.211Z,42.97
2019-05-13T20:37:45.177Z,44.04
2019-05-13T20:40:16.152Z,43.69
2019-05-13T20:42:51.500Z,44.15
2019-05-13T20:45:22.703Z,44.08
2019-05-13T20:47:53.748Z,44.13
2019-05-13T20:50:24.715Z,44.69
2019-05-13T20:52:55.762Z,44.32
2019-05-13T20:55:28.374Z,44.18
2019-05-13T20:58:01.323Z,44.79
2019-05-13T21:00:33.856Z,46.49
2019-05-13T21:03:04.930Z,45.68
2019-05-13T21:08:24.675Z,45.78
2019-05-13T21:10:55.616Z,45.64
2019-05-13T21:13:26.556Z,45.75
2019-05-13T21:15:57.896Z,46.25
2019-05-13T21:18:31.423Z,46.17
2019-05-13T21:21:03.011Z,46.38
2019-05-13T21:23:34.238Z,46.77
2019-05-13T21:26:06.323Z,47.71
2019-05-13T21:28:41.900Z,47.20
2019-05-13T21:31:12.705Z,47.78
2019-05-13T21:33:43.753Z,47.94
2019-05-13T21:36:14.694Z,49.04
2019-05-13T21:38:45.712Z,48.79
2019-05-13T21:41:18.024Z,49.66
2019-05-13T21:43:48.968Z,49.65
2019-05-13T21:46:21.236Z,49.42
2019-05-13T21:48:53.148Z,48.53
2019-05-13T21:51:24.802Z,49.80
2019-05-13T21:53:55.945Z,50.44
2019-05-13T21:56:27.024Z,50.17
2019-05-13T21:58:58.119Z,51.46
2019-05-13T22:01:31.512Z,50.68
2019-05-13T22:04:02.775Z,51.21
2019-05-13T22:06:33.713Z,50.99
2019-05-13T22:09:08.588Z,51.70
2019-05-13T22:11:41.777Z,51.48
2019-05-13T22:14:12.431Z,51.61
2019-05-13T22:16:43.426Z,51.49
2019-05-13T22:19:14.383Z,51.91
2019-05-13T22:21:45.336Z,51.94
2019-05-13T22:24:16.360Z,52.43
2019-05-13T22:26:47.351Z,52.16
2019-05-13T22:29:18.450Z,52.44
2019-05-13T22:31:51.162Z,51.55
2019-05-13T22:34:22.319Z,52.57
2019-05-13T22:36:53.571Z,53.07
2019-05-13T22:39:26.011Z,52.67
2019-05-13T22:41:57.404Z,52.46
2019-05-13T22:44:28.480Z,52.13
2019-05-13T22:46:59.466Z,53.03
2019-05-13T22:49:31.195Z,52.71
2019-05-13T22:52:02.375Z,52.97
2019-05-13T22:54:33.369Z,51.29
2019-05-13T22:57:04.311Z,52.21
2019-05-13T22:59:35.290Z,51.67
2019-05-13T23:02:06.557Z,51.62
2019-05-13T23:04:38.113Z,52.62
2019-05-13T23:07:11.342Z,51.88
2019-05-13T23:09:41.897Z,52.08
2019-05-13T23:12:12.791Z,53.34
2019-05-13T23:14:43.816Z,53.02
2019-05-13T23:17:14.815Z,53.50
2019-05-13T23:19:45.970Z,52.80
2019-05-13T23:22:16.837Z,52.82
2019-05-13T23:24:47.742Z,53.25
2019-05-13T23:27:18.771Z,52.81
2019-05-13T23:29:51.584Z,53.32
2019-05-13T23:32:22.238Z,53.56
2019-05-13T23:34:53.237Z,53.95
2019-05-13T23:37:24.135Z,54.02
2019-05-13T23:39:55.844Z,52.67
2019-05-13T23:42:27.163Z,53.61
2019-05-13T23:44:58.674Z,53.92
2019-05-13T23:47:31.127Z,52.58
2019-05-13T23:50:02.214Z,52.49
2019-05-13T23:52:33.271Z,53.34
2019-05-13T23:55:06.005Z,53.92
2019-05-13T23:57:36.890Z,54.18
